Latest Weather Observations for New May Downs

IDQ60801

Issued at 4:42 pm EST Thursday 18 July 2019 (issued every 10 minutes, with the page automatically refreshed every 10 minutes)

About weather observations | Map of weather stations | Latest weather observations for QLD | Other Formats
Station Details ID: 037059 Name: NEW MAY DOWNS Lat: -20.59 Lon: 139.34 Height: 392.0 m
Data from the previous 72 hours. | See also: Recent months at New May Downs
Date/Time
EST
Temp
°C
App
Temp
°C
Dew
Point
°C
Rel
Hum
%
Delta-T
°C
Wind Press
QNH
hPa
Press
MSL
hPa
Rain since
9am
mm
Dir  Spd
km/h
Gust
km/h
Spd
kts
Gust
kts
18/04:30pm 24.5 20.8 -2.9 16 12.1 SE 7 17 4 9 - - 0.0
18/04:00pm 24.1 19.7 -2.4 17 11.8 SE 11 22 6 12 - - 0.0
18/03:30pm 23.8 19.3 -3.5 16 11.9 E 11 19 6 10 - - 0.0
18/03:00pm 24.0 19.6 -2.5 17 11.8 SE 11 26 6 14 - - 0.0
18/02:30pm 23.5 19.1 -2.2 18 11.4 SE 11 19 6 10 - - 0.0
18/02:00pm 23.7 18.6 -2.0 18 11.5 ESE 15 24 8 13 - - 0.0
18/01:30pm 22.9 17.7 -2.6 18 11.2 E 15 24 8 13 - - 0.0
18/01:00pm 23.2 18.1 -1.7 19 11.2 ESE 15 30 8 16 - - 0.0
18/12:30pm 22.8 17.0 -1.3 20 10.8 E 19 28 10 15 - - 0.0
18/12:00pm 21.5 15.0 -2.4 20 10.4 E 22 30 12 16 - - 0.0
18/11:30am 21.7 15.9 -1.6 21 10.3 ESE 19 32 10 17 - - 0.0
18/11:00am 20.3 14.3 -1.5 23 9.6 E 20 33 11 18 - - 0.0
18/10:30am 19.8 14.0 -1.3 24 9.3 ESE 19 30 10 16 - - 0.0
18/10:00am 18.6 12.3 -1.3 26 8.6 ESE 22 32 12 17 - - 0.0
18/09:30am 17.4 11.4 -1.3 28 8.0 ESE 20 35 11 19 - - 0.0
18/09:00am 16.4 11.4 -1.2 30 7.5 ESE 15 24 8 13 - - 0.0
18/08:30am 14.1 10.8 -1.5 34 6.5 ESE 6 9 3 5 - - 0.0
18/08:00am 12.8 8.8 -1.9 36 6.0 ESE 9 11 5 6 - - 0.0
18/07:30am 11.1 7.5 -2.0 40 5.2 ESE 7 9 4 5 - - 0.0
18/07:00am 11.4 7.1 -1.7 40 5.3 SE 11 13 6 7 - - 0.0
18/06:30am 11.6 7.3 -1.5 40 5.3 SE 11 15 6 8 - - 0.0
18/06:00am 11.3 7.5 -0.5 44 4.9 SE 9 9 5 5 - - 0.0
18/05:30am 10.2 6.7 -1.5 44 4.7 SE 7 11 4 6 - - 0.0
18/05:00am 11.2 7.7 -1.2 42 5.0 SSE 7 11 4 6 - - 0.0
18/04:30am 11.1 7.3 -0.7 44 4.8 S 9 13 5 7 - - 0.0
18/04:00am 11.1 7.6 -1.3 42 5.0 SE 7 9 4 5 - - 0.0
18/03:30am 12.1 8.3 -1.1 40 5.4 SE 9 11 5 6 - - 0.0
18/03:00am 13.1 9.3 -0.9 38 5.8 SSE 9 9 5 5 - - 0.0
18/02:30am 13.6 9.8 -0.8 37 6.0 SSE 9 11 5 6 - - 0.0
18/02:00am 13.8 10.0 -0.6 37 6.1 SSE 9 11 5 6 - - 0.0
18/01:30am 13.9 10.1 -0.9 36 6.2 SSE 9 11 5 6 - - 0.0
18/01:00am 14.4 10.6 -0.5 36 6.3 SSE 9 11 5 6 - - 0.0
18/12:30am 14.3 10.5 -0.5 36 6.3 SSE 9 13 5 7 - - 0.0
18/12:00am 14.0 10.2 -0.8 36 6.2 SSE 9 11 5 6 - - 0.0
 
Date/Time
EST
Temp
°C
App
Temp
°C
Dew
Point
°C
Rel
Hum
%
Delta-T
°C
Wind Press
QNH
hPa
Press
MSL
hPa
Rain since
9am
mm
Dir  Spd
km/h
Gust
km/h
Spd
kts
Gust
kts
17/11:30pm 14.5 10.7 -0.8 35 6.5 SSE 9 11 5 6 - - 0.0
17/11:00pm 15.2 11.4 -0.9 33 6.8 SSE 9 13 5 7 - - 0.0
17/10:30pm 15.3 11.5 -0.9 33 6.9 SSE 9 13 5 7 - - 0.0
17/10:00pm 15.9 12.1 -0.8 32 7.1 SSE 9 13 5 7 - - 0.0
17/09:30pm 16.4 12.7 -0.3 32 7.3 SSE 9 13 5 7 - - 0.0
17/09:00pm 16.5 12.7 -1.1 30 7.5 SSE 9 11 5 6 - - 0.0
17/08:30pm 17.6 13.4 -1.1 28 8.1 SSE 11 13 6 7 - - 0.0
17/08:00pm 18.0 14.1 -1.8 26 8.5 SSE 9 13 5 7 - - 0.0
17/07:30pm 19.1 15.1 -1.9 24 9.0 SSE 9 13 5 7 - - 0.0
17/07:00pm 19.9 15.1 -2.4 22 9.6 SE 13 19 7 10 - - 0.0
17/06:30pm 21.1 16.2 -3.4 19 10.4 SE 13 19 7 10 - - 0.0
17/06:00pm 22.2 16.9 -4.0 17 11.1 SE 15 20 8 11 - - 0.0
17/05:30pm 23.2 18.2 -4.0 16 11.7 SE 13 22 7 12 - - 0.0
17/05:00pm 23.9 19.3 -4.3 15 12.1 SE 11 17 6 9 - - 0.0
17/04:30pm 24.4 19.7 -4.8 14 12.5 ESE 11 20 6 11 - - 0.0
17/04:00pm 24.3 18.8 -5.8 13 12.6 ESE 15 24 8 13 - - 0.0
17/03:30pm 24.6 19.6 -4.6 14 12.5 ESE 13 20 7 11 - - 0.0
17/03:00pm 24.3 19.1 -5.8 13 12.6 SE 13 22 7 12 - - 0.0
17/02:30pm 23.8 18.3 -5.3 14 12.2 ESE 15 24 8 13 - - 0.0
17/02:00pm 23.3 17.3 -6.6 13 12.2 SE 17 26 9 14 - - 0.0
17/01:30pm 22.9 17.1 -5.1 15 11.7 ESE 17 24 9 13 - - 0.0
17/01:00pm 22.4 16.5 -5.5 15 11.5 ESE 17 26 9 14 - - 0.0
17/12:30pm 21.8 16.3 -2.1 20 10.5 ESE 17 28 9 15 - - 0.0
17/12:00pm 20.8 15.4 -1.7 22 9.9 ESE 17 24 9 13 - - 0.0
17/11:30am 20.3 14.0 -0.9 24 9.4 E 22 30 12 16 - - 0.0
17/11:00am 19.5 13.6 -0.5 26 8.9 E 20 32 11 17 - - 0.0
17/10:30am 18.1 11.5 -0.2 29 8.1 ESE 24 33 13 18 - - 0.0
17/10:00am 17.6 11.8 -0.2 30 7.8 ESE 20 33 11 18 - - 0.0
17/09:30am 16.2 10.0 -0.1 33 7.1 ESE 22 32 12 17 - - 0.0
17/09:00am 15.2 10.8 0.2 36 6.5 ESE 13 20 7 11 - - 0.0
17/08:30am 13.4 9.5 1.1 43 5.4 SE 11 19 6 10 - - 0.0
17/08:00am 11.3 7.0 1.0 49 4.4 SE 13 19 7 10 - - 0.0
17/07:30am 10.4 6.5 1.0 52 4.0 SE 11 15 6 8 - - 0.0
17/07:00am 10.2 6.2 0.8 52 3.9 SE 11 19 6 10 - - 0.0
17/06:30am 10.5 6.2 1.1 52 4.0 ESE 13 17 7 9 - - 0.0
17/06:00am 9.8 5.9 1.2 55 3.6 ESE 11 15 6 8 - - 0.0
17/05:30am 9.6 5.7 1.3 56 3.5 SE 11 13 6 7 - - 0.0
17/05:00am 9.9 6.8 1.3 55 3.6 SE 7 11 4 6 - - 0.0
17/04:30am 10.6 7.5 1.4 53 3.9 SSE 7 9 4 5 - - 0.0
17/04:00am 11.4 8.0 1.6 51 4.2 SSE 9 13 5 7 - - 0.0
17/03:30am 12.1 8.3 2.0 50 4.4 SSE 11 15 6 8 - - 0.0
17/03:00am 12.5 8.4 2.4 50 4.5 SSE 13 19 7 10 - - 0.0
17/02:30am 12.8 9.1 2.6 50 4.6 SSE 11 17 6 9 - - 0.0
17/02:00am 12.7 9.1 2.8 51 4.5 SSE 11 17 6 9 - - 0.0
17/01:30am 12.5 9.2 2.4 50 4.5 SE 9 11 5 6 - - 0.0
17/01:00am 13.3 9.6 2.5 48 4.9 SE 11 15 6 8 - - 0.0
17/12:30am 13.5 10.2 2.4 47 5.0 SE 9 13 5 7 - - 0.0
17/12:00am 13.7 10.7 2.0 45 5.2 SSE 7 9 4 5 - - 0.0
 
Date/Time
EST
Temp
°C
App
Temp
°C
Dew
Point
°C
Rel
Hum
%
Delta-T
°C
Wind Press
QNH
hPa
Press
MSL
hPa
Rain since
9am
mm
Dir  Spd
km/h
Gust
km/h
Spd
kts
Gust
kts
16/11:30pm 13.8 10.7 1.5 43 5.4 SSE 7 13 4 7 - - 0.0
16/11:00pm 13.8 10.7 1.1 42 5.6 SSE 7 9 4 5 - - 0.0
16/10:30pm 14.5 11.3 0.7 39 6.0 SSE 7 13 4 7 - - 0.0
16/10:00pm 15.1 11.5 0.5 37 6.4 S 9 15 5 8 - - 0.0
16/09:30pm 15.4 11.7 0.0 35 6.7 S 9 15 5 8 - - 0.0
16/09:00pm 15.6 11.5 -0.2 34 6.8 S 11 15 6 8 - - 0.0
16/08:30pm 16.0 12.3 -0.2 33 7.0 S 9 13 5 7 - - 0.0
16/08:00pm 16.7 12.6 -0.1 32 7.4 S 11 13 6 7 - - 0.0
16/07:30pm 17.5 13.7 -0.7 29 7.9 S 9 13 5 7 - - 0.0
16/07:00pm 18.3 14.5 -1.0 27 8.4 SSE 9 13 5 7 - - 0.0
16/06:30pm 19.4 15.5 -1.7 24 9.2 SSE 9 13 5 7 - - 0.0
16/06:00pm 20.6 15.8 -2.5 21 10.0 SSE 13 19 7 10 - - 0.0
16/05:30pm 21.4 16.5 -3.1 19 10.5 SE 13 20 7 11 - - 0.0
16/05:00pm 22.0 17.1 -3.4 18 10.9 SE 13 22 7 12 - - 0.0
16/04:30pm 22.0 16.7 -3.4 18 10.9 ESE 15 24 8 13 - - 0.0
16/04:00pm 21.9 16.3 -2.7 19 10.7 SE 17 26 9 14 - - 0.0
16/03:30pm 21.7 16.1 -2.9 19 10.6 SE 17 26 9 14 - - 0.0
16/03:00pm 21.6 15.9 -3.7 18 10.8 SE 17 24 9 13 - - 0.0
16/02:30pm 21.1 15.1 -3.4 19 10.4 ESE 19 28 10 15 - - 0.0
16/02:00pm 21.0 15.8 -2.8 20 10.2 ESE 15 24 8 13 - - 0.0
16/01:30pm 20.5 14.9 -3.2 20 10.1 ESE 17 22 9 12 - - 0.0
16/01:00pm 19.9 14.4 -2.4 22 9.6 ESE 17 30 9 16 - - 0.0
16/12:30pm 19.3 14.7 -1.2 25 9.0 ESE 13 24 7 13 - - 0.0
16/12:00pm 18.0 12.3 -0.8 28 8.2 ESE 19 28 10 15 - - 0.0
16/11:30am 16.9 11.2 -0.8 30 7.6 ESE 19 30 10 16 - - 0.0
16/11:00am 16.0 9.7 -0.7 32 7.2 ESE 22 33 12 18 - - 0.0
16/10:30am 15.5 9.0 0.1 35 6.7 ESE 24 35 13 19 - - 0.0
16/10:00am 14.7 8.9 0.2 37 6.3 ESE 20 32 11 17 - - 0.0
16/09:30am 13.1 8.4 0.8 43 5.3 SE 15 20 8 11 - - 0.0
16/09:00am 11.7 6.6 0.8 47 4.6 SE 17 26 9 14 - - 0.0
16/08:30am 10.5 6.1 0.5 50 4.2 SSE 13 20 7 11 - - 0.0
16/08:00am 9.1 5.4 0.0 53 3.7 SSE 9 13 5 7 - - 0.0
16/07:30am 8.4 5.1 -0.1 55 3.4 SSE 7 11 4 6 - - 0.0
16/07:00am 8.6 4.9 0.1 55 3.5 SSE 9 15 5 8 - - 0.0
16/06:30am 8.8 5.1 0.0 54 3.6 SSE 9 13 5 7 - - 0.0
16/06:00am 9.1 5.4 -0.2 52 3.8 SSE 9 13 5 7 - - 0.0
16/05:30am 9.3 5.6 -0.3 51 3.9 SSE 9 15 5 8 - - 0.0
16/05:00am 9.6 5.1 -0.6 49 4.1 SSE 13 20 7 11 - - 0.0
16/04:30am 9.7 5.9 -0.8 48 4.2 SSE 9 17 5 9 - - 0.0
16/04:00am 10.2 5.6 -0.9 46 4.5 SSE 13 20 7 11 - - 0.0
16/03:30am 10.6 5.7 -0.8 45 4.6 SSE 15 20 8 11 - - 0.0
16/03:00am 11.0 6.1 -0.8 44 4.8 SSE 15 24 8 13 - - 0.0
16/02:30am 11.4 6.4 -1.0 42 5.1 SSE 15 22 8 12 - - 0.0
16/02:00am 11.8 6.8 -1.3 40 5.3 SE 15 22 8 12 - - 0.0
16/01:30am 12.3 6.9 -1.6 38 5.6 SE 17 30 9 16 - - 0.0
16/01:00am 12.2 7.4 -2.4 36 5.8 SE 13 20 7 11 - - 0.0
16/12:30am 12.3 7.5 -2.7 35 5.9 SSE 13 19 7 10 - - 0.0
16/12:00am 11.8 6.9 -3.5 34 5.9 SSE 13 17 7 9 - - 0.0
 
Date/Time
EST
Temp
°C
App
Temp
°C
Dew
Point
°C
Rel
Hum
%
Delta-T
°C
Wind Press
QNH
hPa
Press
MSL
hPa
Rain since
9am
mm
Dir  Spd
km/h
Gust
km/h
Spd
kts
Gust
kts
15/11:30pm 11.6 7.3 -4.5 32 6.1 SSE 9 13 5 7 - - 0.0
15/11:00pm 12.2 7.9 -5.3 29 6.5 SSE 9 13 5 7 - - 0.0
15/10:30pm 12.6 8.2 -5.9 27 6.8 SSE 9 13 5 7 - - 0.0
15/10:00pm 12.6 8.1 -6.4 26 6.9 SSE 9 11 5 6 - - 0.0
15/09:30pm 12.8 7.9 -6.7 25 7.1 SSE 11 13 6 7 - - 0.0
15/09:00pm 13.3 8.7 -7.4 23 7.5 SSE 9 11 5 6 - - 0.0
15/08:30pm 14.0 9.1 -7.4 22 7.8 SSE 11 15 6 8 - - 0.0
15/08:00pm 14.7 10.1 -8.0 20 8.2 SSE 9 15 5 8 - - 0.0
15/07:30pm 15.7 10.7 -8.5 18 8.8 SE 11 19 6 10 - - 0.0
15/07:00pm 16.6 10.9 -7.8 18 9.1 SE 15 22 8 12 - - 0.0
15/06:30pm 17.1 11.3 -8.1 17 9.4 SE 15 24 8 13 - - 0.0
15/06:00pm 18.1 12.3 -8.9 15 10.0 SE 15 26 8 14 - - 0.0
15/05:30pm 19.1 12.5 -9.0 14 10.5 ESE 19 28 10 15 - - 0.0
15/05:00pm 19.4 12.8 -8.7 14 10.6 SE 19 32 10 17 - - 0.0

Other formats

Comma delimited format used in spreadsheet applications
http://www.bom.gov.au/fwo/IDQ60801/IDQ60801.94349.axf

JavaScript Object Notation format (JSON) in row-major order
http://www.bom.gov.au/fwo/IDQ60801/IDQ60801.94349.json

Data quality

Most of these data are generated automatically and are frequently updated. Quality checks on data are not normally performed. It is possible for incorrect values to appear. Refer to information at About Latest Weather Observations and please check the disclaimer before using these data.